sensor_id;sensor_type;location;lat;lon;timestamp;P1;durP1;ratioP1;P2;durP2;ratioP2
2175;SDS011;1094;49.902;10.876;2024-02-14T00:02:12;21.40;;;19.70;;
2175;SDS011;1094;49.902;10.876;2024-02-14T00:04:38;20.83;;;19.17;;
2175;SDS011;1094;49.902;10.876;2024-02-14T00:07:04;22.53;;;20.40;;
2175;SDS011;1094;49.902;10.876;2024-02-14T00:09:30;21.63;;;19.63;;
2175;SDS011;1094;49.902;10.876;2024-02-14T00:11:56;21.13;;;18.80;;
2175;SDS011;1094;49.902;10.876;2024-02-14T00:14:22;21.30;;;18.57;;
2175;SDS011;1094;49.902;10.876;2024-02-14T00:16:49;19.83;;;18.13;;
2175;SDS011;1094;49.902;10.876;2024-02-14T00:19:15;21.20;;;19.10;;
2175;SDS011;1094;49.902;10.876;2024-02-14T00:21:41;20.30;;;18.70;;
2175;SDS011;1094;49.902;10.876;2024-02-14T00:24:07;19.40;;;17.80;;
2175;SDS011;1094;49.902;10.876;2024-02-14T00:26:33;19.93;;;18.10;;
2175;SDS011;1094;49.902;10.876;2024-02-14T00:29:00;20.03;;;18.53;;
2175;SDS011;1094;49.902;10.876;2024-02-14T00:31:26;19.97;;;18.00;;
2175;SDS011;1094;49.902;10.876;2024-02-14T00:33:52;20.13;;;18.50;;
2175;SDS011;1094;49.902;10.876;2024-02-14T00:36:18;21.23;;;19.37;;
2175;SDS011;1094;49.902;10.876;2024-02-14T00:38:44;20.73;;;18.63;;
2175;SDS011;1094;49.902;10.876;2024-02-14T00:41:10;21.47;;;19.87;;
2175;SDS011;1094;49.902;10.876;2024-02-14T00:43:36;19.80;;;17.93;;
2175;SDS011;1094;49.902;10.876;2024-02-14T00:46:02;21.07;;;19.30;;
2175;SDS011;1094;49.902;10.876;2024-02-14T00:48:28;19.67;;;18.17;;
2175;SDS011;1094;49.902;10.876;2024-02-14T00:50:54;19.90;;;18.47;;
2175;SDS011;1094;49.902;10.876;2024-02-14T00:53:20;21.63;;;19.97;;
2175;SDS011;1094;49.902;10.876;2024-02-14T00:55:46;19.70;;;18.13;;
2175;SDS011;1094;49.902;10.876;2024-02-14T00:58:12;22.87;;;20.43;;
2175;SDS011;1094;49.902;10.876;2024-02-14T01:00:38;21.00;;;19.33;;
2175;SDS011;1094;49.902;10.876;2024-02-14T01:03:05;21.47;;;19.53;;
2175;SDS011;1094;49.902;10.876;2024-02-14T01:05:33;22.10;;;20.08;;
2175;SDS011;1094;49.902;10.876;2024-02-14T01:07:58;22.20;;;20.00;;
2175;SDS011;1094;49.902;10.876;2024-02-14T01:10:25;20.90;;;19.30;;
2175;SDS011;1094;49.902;10.876;2024-02-14T01:12:51;19.13;;;17.70;;
2175;SDS011;1094;49.902;10.876;2024-02-14T01:15:17;20.90;;;19.50;;
2175;SDS011;1094;49.902;10.876;2024-02-14T01:17:42;20.10;;;18.70;;
2175;SDS011;1094;49.902;10.876;2024-02-14T01:20:12;20.70;;;19.20;;
2175;SDS011;1094;49.902;10.876;2024-02-14T01:22:38;22.03;;;20.53;;
2175;SDS011;1094;49.902;10.876;2024-02-14T01:25:04;20.90;;;19.20;;
2175;SDS011;1094;49.902;10.876;2024-02-14T01:27:31;21.97;;;20.13;;
2175;SDS011;1094;49.902;10.876;2024-02-14T01:29:57;22.10;;;20.17;;
2175;SDS011;1094;49.902;10.876;2024-02-14T01:32:23;21.13;;;19.57;;
2175;SDS011;1094;49.902;10.876;2024-02-14T01:34:49;19.97;;;18.67;;
2175;SDS011;1094;49.902;10.876;2024-02-14T01:37:15;23.17;;;21.17;;
2175;SDS011;1094;49.902;10.876;2024-02-14T01:39:42;20.57;;;19.37;;
2175;SDS011;1094;49.902;10.876;2024-02-14T01:42:07;20.83;;;19.13;;
2175;SDS011;1094;49.902;10.876;2024-02-14T01:44:33;21.83;;;20.30;;
2175;SDS011;1094;49.902;10.876;2024-02-14T01:47:01;22.83;;;21.17;;
2175;SDS011;1094;49.902;10.876;2024-02-14T01:49:27;22.07;;;20.57;;
2175;SDS011;1094;49.902;10.876;2024-02-14T01:51:53;22.13;;;20.60;;
2175;SDS011;1094;49.902;10.876;2024-02-14T01:54:21;20.93;;;19.43;;
2175;SDS011;1094;49.902;10.876;2024-02-14T01:56:47;21.30;;;19.90;;
2175;SDS011;1094;49.902;10.876;2024-02-14T01:59:13;22.23;;;20.37;;
2175;SDS011;1094;49.902;10.876;2024-02-14T02:01:41;21.63;;;20.20;;
2175;SDS011;1094;49.902;10.876;2024-02-14T02:04:07;22.23;;;19.93;;
2175;SDS011;1094;49.902;10.876;2024-02-14T02:06:33;24.03;;;22.17;;
2175;SDS011;1094;49.902;10.876;2024-02-14T02:09:00;22.43;;;20.43;;
2175;SDS011;1094;49.902;10.876;2024-02-14T02:11:26;20.90;;;19.60;;
2175;SDS011;1094;49.902;10.876;2024-02-14T02:13:52;21.30;;;19.77;;
2175;SDS011;1094;49.902;10.876;2024-02-14T02:16:18;23.47;;;21.97;;
2175;SDS011;1094;49.902;10.876;2024-02-14T02:18:44;23.40;;;21.60;;
2175;SDS011;1094;49.902;10.876;2024-02-14T02:21:10;23.37;;;21.57;;
2175;SDS011;1094;49.902;10.876;2024-02-14T02:23:38;23.57;;;21.93;;
2175;SDS011;1094;49.902;10.876;2024-02-14T02:26:06;24.10;;;21.57;;
2175;SDS011;1094;49.902;10.876;2024-02-14T02:28:32;23.03;;;21.60;;
2175;SDS011;1094;49.902;10.876;2024-02-14T02:30:58;23.30;;;21.60;;
2175;SDS011;1094;49.902;10.876;2024-02-14T02:33:24;23.33;;;21.53;;
2175;SDS011;1094;49.902;10.876;2024-02-14T02:35:51;22.90;;;21.10;;
2175;SDS011;1094;49.902;10.876;2024-02-14T02:38:17;23.07;;;20.87;;
2175;SDS011;1094;49.902;10.876;2024-02-14T02:40:44;22.80;;;21.07;;
2175;SDS011;1094;49.902;10.876;2024-02-14T02:43:10;22.63;;;21.00;;
2175;SDS011;1094;49.902;10.876;2024-02-14T02:45:36;22.07;;;20.57;;
2175;SDS011;1094;49.902;10.876;2024-02-14T02:48:03;22.50;;;21.07;;
2175;SDS011;1094;49.902;10.876;2024-02-14T02:50:29;22.17;;;20.27;;
2175;SDS011;1094;49.902;10.876;2024-02-14T02:52:55;22.23;;;20.70;;
2175;SDS011;1094;49.902;10.876;2024-02-14T02:55:22;22.10;;;20.70;;
2175;SDS011;1094;49.902;10.876;2024-02-14T02:57:48;21.93;;;20.63;;
2175;SDS011;1094;49.902;10.876;2024-02-14T03:00:14;21.67;;;20.17;;
2175;SDS011;1094;49.902;10.876;2024-02-14T03:02:41;22.50;;;21.10;;
2175;SDS011;1094;49.902;10.876;2024-02-14T03:05:09;21.63;;;19.87;;
2175;SDS011;1094;49.902;10.876;2024-02-14T03:07:35;23.50;;;21.60;;
2175;SDS011;1094;49.902;10.876;2024-02-14T03:10:02;21.93;;;20.63;;
2175;SDS011;1094;49.902;10.876;2024-02-14T03:12:29;20.97;;;19.67;;
2175;SDS011;1094;49.902;10.876;2024-02-14T03:14:56;24.70;;;22.17;;
2175;SDS011;1094;49.902;10.876;2024-02-14T03:17:23;21.40;;;19.80;;
2175;SDS011;1094;49.902;10.876;2024-02-14T03:19:49;21.87;;;19.97;;
2175;SDS011;1094;49.902;10.876;2024-02-14T03:22:17;21.43;;;20.10;;
2175;SDS011;1094;49.902;10.876;2024-02-14T03:24:44;22.17;;;20.77;;
2175;SDS011;1094;49.902;10.876;2024-02-14T03:27:11;21.77;;;20.10;;
2175;SDS011;1094;49.902;10.876;2024-02-14T03:29:37;22.63;;;20.77;;
2175;SDS011;1094;49.902;10.876;2024-02-14T03:32:06;22.07;;;20.43;;
2175;SDS011;1094;49.902;10.876;2024-02-14T03:34:33;21.60;;;20.20;;
2175;SDS011;1094;49.902;10.876;2024-02-14T03:37:00;22.60;;;21.07;;
2175;SDS011;1094;49.902;10.876;2024-02-14T03:39:27;22.17;;;20.50;;
2175;SDS011;1094;49.902;10.876;2024-02-14T03:41:53;22.77;;;20.87;;
2175;SDS011;1094;49.902;10.876;2024-02-14T03:44:20;20.83;;;19.30;;
2175;SDS011;1094;49.902;10.876;2024-02-14T03:46:46;20.63;;;19.33;;
2175;SDS011;1094;49.902;10.876;2024-02-14T03:49:12;22.23;;;20.60;;
2175;SDS011;1094;49.902;10.876;2024-02-14T03:51:38;21.43;;;20.13;;
2175;SDS011;1094;49.902;10.876;2024-02-14T03:54:05;21.77;;;20.20;;
2175;SDS011;1094;49.902;10.876;2024-02-14T03:56:31;21.60;;;20.00;;
2175;SDS011;1094;49.902;10.876;2024-02-14T03:59:02;22.73;;;21.07;;
2175;SDS011;1094;49.902;10.876;2024-02-14T04:01:30;23.37;;;21.60;;
2175;SDS011;1094;49.902;10.876;2024-02-14T04:03:56;22.30;;;20.80;;
2175;SDS011;1094;49.902;10.876;2024-02-14T04:06:22;23.17;;;21.77;;
2175;SDS011;1094;49.902;10.876;2024-02-14T04:08:49;21.60;;;20.30;;
2175;SDS011;1094;49.902;10.876;2024-02-14T04:11:15;21.60;;;20.20;;
2175;SDS011;1094;49.902;10.876;2024-02-14T04:13:41;21.00;;;19.63;;
2175;SDS011;1094;49.902;10.876;2024-02-14T04:16:07;21.80;;;20.30;;
2175;SDS011;1094;49.902;10.876;2024-02-14T04:18:33;21.50;;;19.93;;
2175;SDS011;1094;49.902;10.876;2024-02-14T04:20:59;22.33;;;20.53;;
2175;SDS011;1094;49.902;10.876;2024-02-14T04:23:25;21.77;;;20.00;;
2175;SDS011;1094;49.902;10.876;2024-02-14T04:25:51;22.33;;;20.77;;
2175;SDS011;1094;49.902;10.876;2024-02-14T04:28:17;20.77;;;19.37;;
2175;SDS011;1094;49.902;10.876;2024-02-14T04:30:43;20.93;;;19.50;;
2175;SDS011;1094;49.902;10.876;2024-02-14T04:33:09;19.50;;;18.30;;
2175;SDS011;1094;49.902;10.876;2024-02-14T04:35:35;20.33;;;18.90;;
2175;SDS011;1094;49.902;10.876;2024-02-14T04:38:00;20.87;;;19.30;;
2175;SDS011;1094;49.902;10.876;2024-02-14T04:40:27;20.63;;;19.33;;
2175;SDS011;1094;49.902;10.876;2024-02-14T04:42:53;19.93;;;18.37;;
2175;SDS011;1094;49.902;10.876;2024-02-14T04:45:19;22.27;;;20.77;;
2175;SDS011;1094;49.902;10.876;2024-02-14T04:47:45;20.90;;;19.50;;
2175;SDS011;1094;49.902;10.876;2024-02-14T04:50:11;23.13;;;21.43;;
2175;SDS011;1094;49.902;10.876;2024-02-14T04:52:38;21.77;;;20.40;;
2175;SDS011;1094;49.902;10.876;2024-02-14T04:55:04;21.67;;;20.27;;
2175;SDS011;1094;49.902;10.876;2024-02-14T04:57:31;22.40;;;20.90;;
2175;SDS011;1094;49.902;10.876;2024-02-14T05:00:00;21.40;;;20.10;;
2175;SDS011;1094;49.902;10.876;2024-02-14T05:02:26;21.97;;;20.47;;
2175;SDS011;1094;49.902;10.876;2024-02-14T05:04:53;20.67;;;19.40;;
2175;SDS011;1094;49.902;10.876;2024-02-14T05:07:20;21.43;;;20.10;;
2175;SDS011;1094;49.902;10.876;2024-02-14T05:09:46;22.47;;;20.97;;
2175;SDS011;1094;49.902;10.876;2024-02-14T05:12:15;21.23;;;19.93;;
2175;SDS011;1094;49.902;10.876;2024-02-14T05:14:41;22.00;;;20.53;;
2175;SDS011;1094;49.902;10.876;2024-02-14T05:17:07;23.03;;;21.33;;
2175;SDS011;1094;49.902;10.876;2024-02-14T05:19:34;21.50;;;20.00;;
2175;SDS011;1094;49.902;10.876;2024-02-14T05:21:59;21.90;;;20.50;;
2175;SDS011;1094;49.902;10.876;2024-02-14T05:24:25;20.80;;;19.40;;
2175;SDS011;1094;49.902;10.876;2024-02-14T05:26:52;21.40;;;20.00;;
2175;SDS011;1094;49.902;10.876;2024-02-14T05:29:18;22.00;;;20.60;;
2175;SDS011;1094;49.902;10.876;2024-02-14T05:31:45;20.90;;;19.70;;
2175;SDS011;1094;49.902;10.876;2024-02-14T05:34:12;20.73;;;19.33;;
2175;SDS011;1094;49.902;10.876;2024-02-14T05:36:38;21.23;;;19.63;;
2175;SDS011;1094;49.902;10.876;2024-02-14T05:39:04;21.47;;;19.93;;
2175;SDS011;1094;49.902;10.876;2024-02-14T05:41:31;21.37;;;20.00;;
2175;SDS011;1094;49.902;10.876;2024-02-14T05:43:58;21.13;;;19.83;;
2175;SDS011;1094;49.902;10.876;2024-02-14T05:46:24;21.60;;;20.10;;
2175;SDS011;1094;49.902;10.876;2024-02-14T05:48:50;22.00;;;20.57;;
2175;SDS011;1094;49.902;10.876;2024-02-14T05:51:17;21.70;;;20.10;;
2175;SDS011;1094;49.902;10.876;2024-02-14T05:53:43;21.50;;;20.10;;
2175;SDS011;1094;49.902;10.876;2024-02-14T05:56:09;21.47;;;20.07;;
2175;SDS011;1094;49.902;10.876;2024-02-14T05:58:35;21.13;;;19.93;;
2175;SDS011;1094;49.902;10.876;2024-02-14T06:01:01;21.17;;;19.87;;
2175;SDS011;1094;49.902;10.876;2024-02-14T06:03:27;21.47;;;20.00;;
2175;SDS011;1094;49.902;10.876;2024-02-14T06:05:53;21.83;;;20.30;;
2175;SDS011;1094;49.902;10.876;2024-02-14T06:08:20;19.90;;;18.40;;
2175;SDS011;1094;49.902;10.876;2024-02-14T06:10:46;20.87;;;19.13;;
2175;SDS011;1094;49.902;10.876;2024-02-14T06:13:12;20.00;;;18.70;;
2175;SDS011;1094;49.902;10.876;2024-02-14T06:15:38;20.43;;;18.93;;
2175;SDS011;1094;49.902;10.876;2024-02-14T06:18:04;20.60;;;19.23;;
2175;SDS011;1094;49.902;10.876;2024-02-14T06:20:31;20.33;;;18.93;;
2175;SDS011;1094;49.902;10.876;2024-02-14T06:22:57;20.70;;;18.87;;
2175;SDS011;1094;49.902;10.876;2024-02-14T06:25:23;20.17;;;18.77;;
2175;SDS011;1094;49.902;10.876;2024-02-14T06:27:49;20.00;;;18.40;;
2175;SDS011;1094;49.902;10.876;2024-02-14T06:30:15;19.87;;;18.47;;
2175;SDS011;1094;49.902;10.876;2024-02-14T06:32:42;19.70;;;18.13;;
2175;SDS011;1094;49.902;10.876;2024-02-14T06:35:08;21.07;;;19.40;;
2175;SDS011;1094;49.902;10.876;2024-02-14T06:37:33;19.20;;;18.10;;
2175;SDS011;1094;49.902;10.876;2024-02-14T06:39:59;19.27;;;17.93;;
2175;SDS011;1094;49.902;10.876;2024-02-14T06:42:25;19.97;;;18.70;;
2175;SDS011;1094;49.902;10.876;2024-02-14T06:44:51;21.23;;;19.73;;
2175;SDS011;1094;49.902;10.876;2024-02-14T06:47:17;19.93;;;18.43;;
2175;SDS011;1094;49.902;10.876;2024-02-14T06:49:43;20.77;;;19.10;;
2175;SDS011;1094;49.902;10.876;2024-02-14T06:52:09;19.70;;;18.60;;
2175;SDS011;1094;49.902;10.876;2024-02-14T06:54:35;20.00;;;18.63;;
2175;SDS011;1094;49.902;10.876;2024-02-14T06:57:01;20.20;;;18.70;;
2175;SDS011;1094;49.902;10.876;2024-02-14T06:59:27;20.63;;;18.90;;
2175;SDS011;1094;49.902;10.876;2024-02-14T07:01:53;20.33;;;18.73;;
2175;SDS011;1094;49.902;10.876;2024-02-14T07:04:31;19.53;;;18.23;;
2175;SDS011;1094;49.902;10.876;2024-02-14T07:06:57;20.33;;;18.93;;
2175;SDS011;1094;49.902;10.876;2024-02-14T07:09:23;20.23;;;18.83;;
2175;SDS011;1094;49.902;10.876;2024-02-14T07:11:50;18.30;;;17.23;;
2175;SDS011;1094;49.902;10.876;2024-02-14T07:14:18;22.73;;;18.30;;
2175;SDS011;1094;49.902;10.876;2024-02-14T07:16:44;18.67;;;17.47;;
2175;SDS011;1094;49.902;10.876;2024-02-14T07:19:10;19.63;;;18.23;;
2175;SDS011;1094;49.902;10.876;2024-02-14T07:21:36;22.27;;;20.50;;
2175;SDS011;1094;49.902;10.876;2024-02-14T07:24:03;19.37;;;18.10;;
2175;SDS011;1094;49.902;10.876;2024-02-14T07:26:29;21.90;;;19.80;;
2175;SDS011;1094;49.902;10.876;2024-02-14T07:28:55;21.23;;;19.83;;
2175;SDS011;1094;49.902;10.876;2024-02-14T07:31:23;21.10;;;18.97;;
2175;SDS011;1094;49.902;10.876;2024-02-14T07:33:49;20.60;;;18.70;;
2175;SDS011;1094;49.902;10.876;2024-02-14T07:36:18;21.43;;;19.80;;
2175;SDS011;1094;49.902;10.876;2024-02-14T07:38:44;20.80;;;19.50;;
2175;SDS011;1094;49.902;10.876;2024-02-14T07:41:10;20.30;;;18.90;;
2175;SDS011;1094;49.902;10.876;2024-02-14T07:43:36;20.57;;;18.97;;
2175;SDS011;1094;49.902;10.876;2024-02-14T07:46:02;21.50;;;19.90;;
2175;SDS011;1094;49.902;10.876;2024-02-14T07:48:30;20.93;;;19.47;;
2175;SDS011;1094;49.902;10.876;2024-02-14T07:50:56;21.00;;;19.60;;
2175;SDS011;1094;49.902;10.876;2024-02-14T07:53:24;19.92;;;18.23;;
2175;SDS011;1094;49.902;10.876;2024-02-14T07:55:50;21.07;;;19.53;;
2175;SDS011;1094;49.902;10.876;2024-02-14T07:58:17;20.40;;;19.10;;
2175;SDS011;1094;49.902;10.876;2024-02-14T08:00:43;21.23;;;20.03;;
2175;SDS011;1094;49.902;10.876;2024-02-14T08:03:09;21.47;;;19.87;;
2175;SDS011;1094;49.902;10.876;2024-02-14T08:05:35;20.80;;;19.57;;
2175;SDS011;1094;49.902;10.876;2024-02-14T08:08:01;21.10;;;19.60;;
2175;SDS011;1094;49.902;10.876;2024-02-14T08:10:27;21.40;;;19.60;;
2175;SDS011;1094;49.902;10.876;2024-02-14T08:12:53;19.60;;;18.47;;
2175;SDS011;1094;49.902;10.876;2024-02-14T08:15:19;20.63;;;18.67;;
2175;SDS011;1094;49.902;10.876;2024-02-14T08:17:46;20.20;;;18.80;;
2175;SDS011;1094;49.902;10.876;2024-02-14T08:20:11;21.00;;;19.70;;
2175;SDS011;1094;49.902;10.876;2024-02-14T08:22:37;20.77;;;19.20;;
2175;SDS011;1094;49.902;10.876;2024-02-14T08:25:04;21.00;;;19.30;;
2175;SDS011;1094;49.902;10.876;2024-02-14T08:27:30;20.80;;;19.30;;
2175;SDS011;1094;49.902;10.876;2024-02-14T08:29:56;20.47;;;18.90;;
2175;SDS011;1094;49.902;10.876;2024-02-14T08:32:22;20.53;;;18.80;;
2175;SDS011;1094;49.902;10.876;2024-02-14T08:34:48;21.20;;;19.70;;
2175;SDS011;1094;49.902;10.876;2024-02-14T08:37:17;21.03;;;19.20;;
2175;SDS011;1094;49.902;10.876;2024-02-14T08:39:43;20.87;;;19.60;;
2175;SDS011;1094;49.902;10.876;2024-02-14T08:42:09;20.00;;;18.80;;
2175;SDS011;1094;49.902;10.876;2024-02-14T08:44:35;20.27;;;19.10;;
2175;SDS011;1094;49.902;10.876;2024-02-14T08:47:02;19.30;;;18.17;;
2175;SDS011;1094;49.902;10.876;2024-02-14T08:49:28;21.33;;;19.60;;
2175;SDS011;1094;49.902;10.876;2024-02-14T08:51:54;20.20;;;19.00;;
2175;SDS011;1094;49.902;10.876;2024-02-14T08:54:20;20.40;;;19.10;;
2175;SDS011;1094;49.902;10.876;2024-02-14T08:56:48;20.73;;;18.87;;
2175;SDS011;1094;49.902;10.876;2024-02-14T08:59:14;20.40;;;19.07;;
2175;SDS011;1094;49.902;10.876;2024-02-14T09:01:40;20.63;;;19.10;;
2175;SDS011;1094;49.902;10.876;2024-02-14T09:04:06;19.87;;;18.20;;
2175;SDS011;1094;49.902;10.876;2024-02-14T09:06:32;19.67;;;18.37;;
2175;SDS011;1094;49.902;10.876;2024-02-14T09:08:58;20.80;;;19.03;;
2175;SDS011;1094;49.902;10.876;2024-02-14T09:11:24;19.73;;;18.33;;
2175;SDS011;1094;49.902;10.876;2024-02-14T09:13:50;20.90;;;19.40;;
2175;SDS011;1094;49.902;10.876;2024-02-14T09:16:20;19.87;;;18.57;;
2175;SDS011;1094;49.902;10.876;2024-02-14T09:18:48;19.80;;;18.60;;
2175;SDS011;1094;49.902;10.876;2024-02-14T09:21:14;20.27;;;19.07;;
2175;SDS011;1094;49.902;10.876;2024-02-14T09:23:40;21.17;;;19.17;;
2175;SDS011;1094;49.902;10.876;2024-02-14T09:26:06;20.13;;;18.60;;
2175;SDS011;1094;49.902;10.876;2024-02-14T09:28:32;20.10;;;18.67;;
2175;SDS011;1094;49.902;10.876;2024-02-14T09:31:00;20.70;;;19.30;;
2175;SDS011;1094;49.902;10.876;2024-02-14T09:33:25;19.60;;;18.50;;
2175;SDS011;1094;49.902;10.876;2024-02-14T09:35:52;19.47;;;18.27;;
2175;SDS011;1094;49.902;10.876;2024-02-14T09:38:18;20.57;;;19.07;;
2175;SDS011;1094;49.902;10.876;2024-02-14T09:40:44;21.60;;;19.90;;
2175;SDS011;1094;49.902;10.876;2024-02-14T09:43:18;23.93;;;20.43;;
2175;SDS011;1094;49.902;10.876;2024-02-14T09:45:47;21.70;;;20.10;;
2175;SDS011;1094;49.902;10.876;2024-02-14T09:48:15;20.60;;;19.40;;
2175;SDS011;1094;49.902;10.876;2024-02-14T09:50:41;20.87;;;19.47;;
2175;SDS011;1094;49.902;10.876;2024-02-14T09:53:07;21.80;;;20.40;;
2175;SDS011;1094;49.902;10.876;2024-02-14T09:55:34;21.67;;;20.07;;
2175;SDS011;1094;49.902;10.876;2024-02-14T09:58:00;21.20;;;19.57;;
2175;SDS011;1094;49.902;10.876;2024-02-14T10:00:29;21.53;;;20.13;;
2175;SDS011;1094;49.902;10.876;2024-02-14T10:02:57;21.10;;;19.43;;
2175;SDS011;1094;49.902;10.876;2024-02-14T10:05:23;21.63;;;20.27;;
2175;SDS011;1094;49.902;10.876;2024-02-14T10:07:50;22.17;;;20.53;;
2175;SDS011;1094;49.902;10.876;2024-02-14T10:10:18;21.33;;;20.03;;
2175;SDS011;1094;49.902;10.876;2024-02-14T10:12:46;21.80;;;20.40;;
2175;SDS011;1094;49.902;10.876;2024-02-14T10:15:12;22.47;;;20.63;;
2175;SDS011;1094;49.902;10.876;2024-02-14T10:17:41;21.33;;;19.80;;
2175;SDS011;1094;49.902;10.876;2024-02-14T10:20:07;23.40;;;21.83;;
2175;SDS011;1094;49.902;10.876;2024-02-14T10:22:34;24.00;;;21.80;;
2175;SDS011;1094;49.902;10.876;2024-02-14T10:25:00;22.40;;;20.80;;
2175;SDS011;1094;49.902;10.876;2024-02-14T10:27:26;23.00;;;21.07;;
2175;SDS011;1094;49.902;10.876;2024-02-14T10:29:55;22.40;;;20.93;;
2175;SDS011;1094;49.902;10.876;2024-02-14T10:32:22;22.80;;;21.40;;
2175;SDS011;1094;49.902;10.876;2024-02-14T10:34:49;22.00;;;20.30;;
2175;SDS011;1094;49.902;10.876;2024-02-14T10:37:15;21.10;;;19.67;;
2175;SDS011;1094;49.902;10.876;2024-02-14T10:39:43;22.70;;;21.30;;
2175;SDS011;1094;49.902;10.876;2024-02-14T10:42:11;21.63;;;19.93;;
2175;SDS011;1094;49.902;10.876;2024-02-14T10:44:38;21.97;;;20.53;;
2175;SDS011;1094;49.902;10.876;2024-02-14T10:47:04;22.20;;;20.90;;
2175;SDS011;1094;49.902;10.876;2024-02-14T10:49:32;21.57;;;20.30;;
2175;SDS011;1094;49.902;10.876;2024-02-14T10:51:58;21.90;;;20.33;;
2175;SDS011;1094;49.902;10.876;2024-02-14T10:54:27;21.00;;;19.77;;
2175;SDS011;1094;49.902;10.876;2024-02-14T10:56:53;20.50;;;19.40;;
2175;SDS011;1094;49.902;10.876;2024-02-14T10:59:21;21.17;;;19.87;;
2175;SDS011;1094;49.902;10.876;2024-02-14T11:01:49;21.33;;;20.03;;
2175;SDS011;1094;49.902;10.876;2024-02-14T11:04:16;20.90;;;19.60;;
2175;SDS011;1094;49.902;10.876;2024-02-14T11:06:44;21.80;;;20.50;;
2175;SDS011;1094;49.902;10.876;2024-02-14T11:09:11;21.20;;;20.10;;
2175;SDS011;1094;49.902;10.876;2024-02-14T11:11:38;22.63;;;21.13;;
2175;SDS011;1094;49.902;10.876;2024-02-14T11:14:04;22.43;;;20.83;;
2175;SDS011;1094;49.902;10.876;2024-02-14T11:16:30;22.13;;;20.63;;
2175;SDS011;1094;49.902;10.876;2024-02-14T11:19:07;22.03;;;20.67;;
2175;SDS011;1094;49.902;10.876;2024-02-14T11:21:39;22.10;;;20.50;;
2175;SDS011;1094;49.902;10.876;2024-02-14T11:24:07;21.70;;;20.17;;
2175;SDS011;1094;49.902;10.876;2024-02-14T11:26:55;22.37;;;20.80;;
2175;SDS011;1094;49.902;10.876;2024-02-14T11:29:20;23.20;;;21.50;;
2175;SDS011;1094;49.902;10.876;2024-02-14T11:31:46;22.97;;;21.47;;
2175;SDS011;1094;49.902;10.876;2024-02-14T11:34:16;22.90;;;21.30;;
2175;SDS011;1094;49.902;10.876;2024-02-14T11:36:42;23.17;;;21.57;;
2175;SDS011;1094;49.902;10.876;2024-02-14T11:39:09;22.73;;;21.23;;
2175;SDS011;1094;49.902;10.876;2024-02-14T11:41:37;22.27;;;20.07;;
2175;SDS011;1094;49.902;10.876;2024-02-14T11:44:06;20.57;;;19.30;;
2175;SDS011;1094;49.902;10.876;2024-02-14T11:46:35;23.10;;;21.40;;
2175;SDS011;1094;49.902;10.876;2024-02-14T11:49:02;20.87;;;19.60;;
2175;SDS011;1094;49.902;10.876;2024-02-14T11:51:34;20.77;;;19.67;;
2175;SDS011;1094;49.902;10.876;2024-02-14T11:54:00;20.67;;;19.47;;
2175;SDS011;1094;49.902;10.876;2024-02-14T11:56:34;20.80;;;19.63;;
2175;SDS011;1094;49.902;10.876;2024-02-14T11:59:01;21.00;;;19.80;;
2175;SDS011;1094;49.902;10.876;2024-02-14T12:01:28;19.93;;;18.60;;
2175;SDS011;1094;49.902;10.876;2024-02-14T12:03:54;19.40;;;18.40;;
2175;SDS011;1094;49.902;10.876;2024-02-14T12:06:20;19.00;;;18.00;;
2175;SDS011;1094;49.902;10.876;2024-02-14T12:08:46;18.83;;;17.93;;
2175;SDS011;1094;49.902;10.876;2024-02-14T12:11:12;19.43;;;18.33;;
2175;SDS011;1094;49.902;10.876;2024-02-14T12:13:37;19.30;;;18.30;;
2175;SDS011;1094;49.902;10.876;2024-02-14T12:16:08;19.87;;;18.77;;
2175;SDS011;1094;49.902;10.876;2024-02-14T12:18:34;19.87;;;18.57;;
2175;SDS011;1094;49.902;10.876;2024-02-14T12:21:03;19.43;;;18.27;;
2175;SDS011;1094;49.902;10.876;2024-02-14T12:23:32;19.50;;;18.50;;
2175;SDS011;1094;49.902;10.876;2024-02-14T12:26:02;20.17;;;18.40;;
2175;SDS011;1094;49.902;10.876;2024-02-14T12:28:29;20.00;;;18.73;;
2175;SDS011;1094;49.902;10.876;2024-02-14T12:30:56;19.43;;;18.33;;
2175;SDS011;1094;49.902;10.876;2024-02-14T12:33:22;19.43;;;18.23;;
2175;SDS011;1094;49.902;10.876;2024-02-14T12:35:49;19.43;;;18.40;;
2175;SDS011;1094;49.902;10.876;2024-02-14T12:38:15;19.63;;;18.43;;
2175;SDS011;1094;49.902;10.876;2024-02-14T12:40:41;18.97;;;17.97;;
2175;SDS011;1094;49.902;10.876;2024-02-14T12:43:09;19.67;;;18.10;;
2175;SDS011;1094;49.902;10.876;2024-02-14T12:45:35;19.07;;;17.97;;
2175;SDS011;1094;49.902;10.876;2024-02-14T12:48:01;19.83;;;18.50;;
2175;SDS011;1094;49.902;10.876;2024-02-14T12:56:36;19.47;;;18.47;;
2175;SDS011;1094;49.902;10.876;2024-02-14T12:59:01;20.00;;;18.67;;
2175;SDS011;1094;49.902;10.876;2024-02-14T13:01:28;19.13;;;18.13;;
2175;SDS011;1094;49.902;10.876;2024-02-14T13:03:54;19.47;;;18.03;;
2175;SDS011;1094;49.902;10.876;2024-02-14T13:06:20;19.77;;;18.40;;
2175;SDS011;1094;49.902;10.876;2024-02-14T13:08:45;19.40;;;18.20;;
2175;SDS011;1094;49.902;10.876;2024-02-14T13:11:11;19.30;;;18.30;;
2175;SDS011;1094;49.902;10.876;2024-02-14T13:13:39;19.60;;;18.50;;
2175;SDS011;1094;49.902;10.876;2024-02-14T13:16:07;20.23;;;18.93;;
2175;SDS011;1094;49.902;10.876;2024-02-14T13:18:33;18.97;;;17.93;;
2175;SDS011;1094;49.902;10.876;2024-02-14T13:21:00;18.70;;;17.70;;
2175;SDS011;1094;49.902;10.876;2024-02-14T13:23:28;18.87;;;17.77;;
2175;SDS011;1094;49.902;10.876;2024-02-14T13:25:54;19.13;;;17.90;;
2175;SDS011;1094;49.902;10.876;2024-02-14T13:28:20;18.90;;;17.90;;
2175;SDS011;1094;49.902;10.876;2024-02-14T13:30:46;18.60;;;17.70;;
2175;SDS011;1094;49.902;10.876;2024-02-14T13:33:13;18.70;;;17.67;;
2175;SDS011;1094;49.902;10.876;2024-02-14T13:35:39;18.60;;;17.40;;
2175;SDS011;1094;49.902;10.876;2024-02-14T13:38:05;18.07;;;16.97;;
2175;SDS011;1094;49.902;10.876;2024-02-14T13:40:38;18.07;;;17.17;;
2175;SDS011;1094;49.902;10.876;2024-02-14T13:43:04;18.00;;;16.90;;
2175;SDS011;1094;49.902;10.876;2024-02-14T13:45:39;17.90;;;17.00;;
2175;SDS011;1094;49.902;10.876;2024-02-14T13:48:07;17.60;;;16.70;;
2175;SDS011;1094;49.902;10.876;2024-02-14T13:50:34;17.60;;;16.60;;
2175;SDS011;1094;49.902;10.876;2024-02-14T13:53:00;17.67;;;16.83;;
2175;SDS011;1094;49.902;10.876;2024-02-14T13:55:26;17.23;;;16.40;;
2175;SDS011;1094;49.902;10.876;2024-02-14T13:57:52;17.20;;;16.30;;
2175;SDS011;1094;49.902;10.876;2024-02-14T14:00:18;17.47;;;16.47;;
2175;SDS011;1094;49.902;10.876;2024-02-14T14:02:44;16.87;;;16.07;;
2175;SDS011;1094;49.902;10.876;2024-02-14T14:05:10;16.73;;;15.43;;
2175;SDS011;1094;49.902;10.876;2024-02-14T14:07:40;16.40;;;15.30;;
2175;SDS011;1094;49.902;10.876;2024-02-14T14:10:06;17.17;;;16.27;;
2175;SDS011;1094;49.902;10.876;2024-02-14T14:12:33;16.37;;;15.50;;
2175;SDS011;1094;49.902;10.876;2024-02-14T14:14:59;15.80;;;14.90;;
2175;SDS011;1094;49.902;10.876;2024-02-14T14:17:25;16.27;;;15.50;;
2175;SDS011;1094;49.902;10.876;2024-02-14T14:19:51;16.43;;;15.53;;
2175;SDS011;1094;49.902;10.876;2024-02-14T14:22:17;15.40;;;14.40;;
2175;SDS011;1094;49.902;10.876;2024-02-14T14:24:43;16.63;;;15.83;;
2175;SDS011;1094;49.902;10.876;2024-02-14T14:27:09;18.67;;;17.30;;
2175;SDS011;1094;49.902;10.876;2024-02-14T14:29:38;17.63;;;16.53;;
2175;SDS011;1094;49.902;10.876;2024-02-14T14:32:06;18.43;;;17.13;;
2175;SDS011;1094;49.902;10.876;2024-02-14T14:34:39;17.87;;;16.77;;
2175;SDS011;1094;49.902;10.876;2024-02-14T14:37:05;17.70;;;16.40;;